Decoded Metar for LEDA (LLEIDA in SPAIN) (IATA:ILD) | Meteo·Mobile Aviation Weather
aviador You're here:

LEDA Decoded Metar

LLEIDA in SPAIN
Report Time2018-08-20 18:30:00
UTC Time2018-08-20 18:42:15
Flight Rules vfr VFR
Wind260° at 03 kt
W.Decomp.*RWY 31: 1.9 kt HW 2.3 kt LCW
W.Rank260° ranks 2
Current wind is below 260° avg. (9.7)
Visibility9999 m
Phenomena:N/A
Clouds:N/A
Expected CloudBase > 6,400 ft AGL from Temp-Dew spread
CeilingNone
Temp29°C (ISA +16)
Dew Point13°C (37% RH)
Heat Index28.4°C
AAT28.8°C
QNH1016 hPa
Density Alt3,123 ft
Elevation1,152 ft
Report Wrong Elevation
Raw Report
LEDA 201830Z AUTO 26003KT 9999 NCD 29/13 Q1016=

Extra information for LEDA:More info

Metar Taf Metar & Taf Last 4 Metars F.Rules Stats Wind Profile Meteogram Temp Stats Airport Information Weather charts Add Link Nearby VenuesMetar ALERT Operation Metar Decoded Social comments